Time;durP1;ratioP1;P1;durP2;ratioP2;P2;SDS_P1;SDS_P2;PMS_P1;PMS_P2;Temp;Humidity;BMP_temperature;BMP_pressure;BME280_temperature;BME280_humidity;BME280_pressure;Samples;Min_cycle;Max_cycle;Signal;HPM_P1;HPM_P2
2021/10/10 00:00:22;;;;;;;16.13;10.48;;;;;;;;;;5039495;28;20097;-68
2021/10/10 00:02:47;;;;;;;14.93;10.30;;;;;;;;;;5035047;28;20097;-68
2021/10/10 00:05:13;;;;;;;18.17;10.07;;;;;;;;;;5039085;28;20032;-67
2021/10/10 00:07:41;;;;;;;15.18;10.05;;;;;;;;;;5040572;28;20373;-67
2021/10/10 00:10:08;;;;;;;15.60;9.77;;;;;;;;;;5039095;28;20057;-67
2021/10/10 00:12:34;;;;;;;16.75;9.45;;;;;;;;;;5035743;28;20067;-67
2021/10/10 00:14:59;;;;;;;15.18;9.70;;;;;;;;;;5045492;28;20566;-68
2021/10/10 00:17:25;;;;;;;16.45;9.63;;;;;;;;;;5039809;28;20057;-68
2021/10/10 00:19:53;;;;;;;19.63;9.23;;;;;;;;;;5053351;28;20377;-67
2021/10/10 00:22:18;;;;;;;16.67;9.90;;;;;;;;;;5034444;28;20032;-68
2021/10/10 00:24:43;;;;;;;15.30;9.15;;;;;;;;;;5038028;28;20024;-67
2021/10/10 00:27:09;;;;;;;13.20;8.63;;;;;;;;;;5042366;28;20021;-68
2021/10/10 00:29:34;;;;;;;18.33;10.05;;;;;;;;;;5051627;28;20033;-67
2021/10/10 00:32:01;;;;;;;17.80;9.55;;;;;;;;;;5045559;28;20029;-67
2021/10/10 00:34:27;;;;;;;14.70;9.55;;;;;;;;;;5059597;28;20029;-67
2021/10/10 00:36:52;;;;;;;17.80;8.88;;;;;;;;;;5047475;28;20033;-67
2021/10/10 00:39:18;;;;;;;18.25;9.23;;;;;;;;;;5048418;28;20320;-67
2021/10/10 00:41:43;;;;;;;13.02;8.88;;;;;;;;;;5040852;28;20067;-67
2021/10/10 00:44:11;;;;;;;12.48;7.88;;;;;;;;;;5039165;28;20087;-67
2021/10/10 00:46:37;;;;;;;15.45;8.60;;;;;;;;;;5053324;28;20029;-67
2021/10/10 00:49:03;;;;;;;16.02;8.43;;;;;;;;;;5050902;28;21608;-67
2021/10/10 00:51:34;;;;;;;18.25;8.55;;;;;;;;;;5036192;28;20393;-67
2021/10/10 00:53:59;;;;;;;14.52;8.25;;;;;;;;;;5041571;28;20082;-67
2021/10/10 00:56:26;;;;;;;12.02;8.20;;;;;;;;;;5052354;28;20021;-67
2021/10/10 00:58:54;;;;;;;12.30;7.88;;;;;;;;;;5042889;28;20123;-67
2021/10/10 01:01:19;;;;;;;11.52;8.05;;;;;;;;;;5051223;28;20083;-67
2021/10/10 01:03:45;;;;;;;13.05;8.65;;;;;;;;;;5035573;28;20465;-68
2021/10/10 01:06:10;;;;;;;16.08;8.45;;;;;;;;;;5052194;28;20108;-68
2021/10/10 01:08:36;;;;;;;14.60;8.20;;;;;;;;;;5052228;28;20085;-70
2021/10/10 01:11:01;;;;;;;13.82;8.02;;;;;;;;;;5044721;28;20024;-67
2021/10/10 01:13:27;;;;;;;10.85;7.32;;;;;;;;;;5050529;28;20017;-67
2021/10/10 01:15:54;;;;;;;16.05;7.78;;;;;;;;;;5038142;28;20068;-67
2021/10/10 01:18:24;;;;;;;12.77;7.45;;;;;;;;;;5041666;28;20043;-67
2021/10/10 01:20:51;;;;;;;13.32;7.90;;;;;;;;;;5045615;28;20481;-67
2021/10/10 01:23:17;;;;;;;11.52;7.65;;;;;;;;;;5040203;28;20348;-67
2021/10/10 01:25:42;;;;;;;15.15;7.00;;;;;;;;;;5050602;28;20040;-67
2021/10/10 01:28:08;;;;;;;14.73;7.25;;;;;;;;;;5049396;28;20032;-68
2021/10/10 01:30:34;;;;;;;13.57;6.10;;;;;;;;;;5039118;28;20033;-67
2021/10/10 01:33:00;;;;;;;12.07;7.15;;;;;;;;;;5037741;28;20519;-67
2021/10/10 01:35:26;;;;;;;13.95;7.03;;;;;;;;;;5052189;28;20533;-67
2021/10/10 01:37:51;;;;;;;13.88;7.65;;;;;;;;;;5033629;28;20432;-67
2021/10/10 01:40:17;;;;;;;12.02;7.03;;;;;;;;;;5044197;28;20472;-67
2021/10/10 01:42:43;;;;;;;11.80;6.32;;;;;;;;;;5046940;28;20030;-68
2021/10/10 01:45:16;;;;;;;12.18;7.57;;;;;;;;;;5033074;28;20033;-67
2021/10/10 01:47:43;;;;;;;11.07;6.10;;;;;;;;;;5040958;28;20529;-68
2021/10/10 01:50:09;;;;;;;12.25;7.25;;;;;;;;;;5038195;28;20083;-67
2021/10/10 01:52:36;;;;;;;10.88;6.55;;;;;;;;;;5046309;28;20032;-67
2021/10/10 01:55:01;;;;;;;8.88;6.78;;;;;;;;;;5035491;28;20037;-67
2021/10/10 01:57:27;;;;;;;12.55;6.88;;;;;;;;;;5049489;28;20091;-67
2021/10/10 01:59:52;;;;;;;15.23;6.55;;;;;;;;;;5048429;28;20049;-67
2021/10/10 02:02:18;;;;;;;11.43;6.40;;;;;;;;;;5050504;28;20027;-67
2021/10/10 02:04:44;;;;;;;11.20;6.70;;;;;;;;;;5051868;28;20029;-68
2021/10/10 02:07:10;;;;;;;11.40;6.82;;;;;;;;;;5037206;28;20031;-68
2021/10/10 02:09:36;;;;;;;12.57;7.35;;;;;;;;;;5043357;28;20052;-67
2021/10/10 02:12:04;;;;;;;15.80;7.20;;;;;;;;;;5037685;28;20028;-67
2021/10/10 02:14:29;;;;;;;11.85;7.70;;;;;;;;;;5043464;28;20110;-67
2021/10/10 02:16:55;;;;;;;13.20;7.07;;;;;;;;;;5041140;28;20062;-67
2021/10/10 02:19:20;;;;;;;13.63;7.22;;;;;;;;;;5051532;28;20025;-67
2021/10/10 02:21:46;;;;;;;13.27;7.68;;;;;;;;;;5036495;28;20037;-68
2021/10/10 02:24:11;;;;;;;13.25;6.95;;;;;;;;;;5038900;28;20041;-68
2021/10/10 02:26:37;;;;;;;10.43;7.38;;;;;;;;;;5044752;28;20040;-68
2021/10/10 02:29:03;;;;;;;11.73;7.30;;;;;;;;;;5039518;28;20056;-67
2021/10/10 02:31:28;;;;;;;11.63;6.45;;;;;;;;;;5031903;28;20055;-68
2021/10/10 02:33:54;;;;;;;12.63;7.68;;;;;;;;;;5032898;28;20034;-67
2021/10/10 02:36:19;;;;;;;11.60;7.38;;;;;;;;;;5032077;28;20497;-67
2021/10/10 02:38:45;;;;;;;11.65;6.85;;;;;;;;;;5031845;28;20052;-67
2021/10/10 02:41:10;;;;;;;11.60;6.75;;;;;;;;;;5039815;28;20481;-67
2021/10/10 02:43:36;;;;;;;13.05;7.97;;;;;;;;;;5039387;28;20037;-67
2021/10/10 02:46:01;;;;;;;12.18;7.13;;;;;;;;;;5040612;28;20028;-67
2021/10/10 02:48:27;;;;;;;10.15;7.28;;;;;;;;;;5039571;28;20032;-67
2021/10/10 02:50:52;;;;;;;11.07;7.18;;;;;;;;;;5042135;28;20469;-68
2021/10/10 02:53:18;;;;;;;10.50;6.82;;;;;;;;;;5043468;28;20096;-67
2021/10/10 02:55:43;;;;;;;13.45;7.80;;;;;;;;;;5044133;28;20466;-68
2021/10/10 02:58:08;;;;;;;11.50;7.20;;;;;;;;;;5038275;28;20021;-68
2021/10/10 03:00:34;;;;;;;9.32;6.75;;;;;;;;;;5039200;28;20033;-68
2021/10/10 03:03:04;;;;;;;14.68;6.95;;;;;;;;;;5041565;28;20045;-67
2021/10/10 03:05:30;;;;;;;10.82;6.78;;;;;;;;;;5050091;28;20075;-67
2021/10/10 03:07:55;;;;;;;11.82;6.85;;;;;;;;;;5051093;28;20111;-67
2021/10/10 03:10:21;;;;;;;13.82;7.20;;;;;;;;;;5046025;28;20017;-67
2021/10/10 03:12:46;;;;;;;10.82;6.82;;;;;;;;;;5043021;28;20469;-67
2021/10/10 03:15:12;;;;;;;10.50;6.88;;;;;;;;;;5032273;28;20029;-67
2021/10/10 03:17:37;;;;;;;10.73;6.28;;;;;;;;;;5036456;28;20055;-67
2021/10/10 03:20:04;;;;;;;15.00;7.53;;;;;;;;;;5048750;28;20082;-67
2021/10/10 03:22:30;;;;;;;9.70;6.85;;;;;;;;;;5049270;28;20036;-67
2021/10/10 03:24:55;;;;;;;9.82;6.70;;;;;;;;;;5048898;28;20028;-67
2021/10/10 03:27:25;;;;;;;9.38;6.57;;;;;;;;;;5049721;28;20396;-67
2021/10/10 03:29:52;;;;;;;10.45;6.70;;;;;;;;;;5046005;28;20114;-68
2021/10/10 03:32:17;;;;;;;12.07;7.70;;;;;;;;;;5051068;28;20025;-68
2021/10/10 03:34:43;;;;;;;11.27;6.95;;;;;;;;;;5065691;28;20024;-67
2021/10/10 03:37:08;;;;;;;10.00;6.35;;;;;;;;;;5066516;28;20028;-67
2021/10/10 03:39:34;;;;;;;9.02;6.50;;;;;;;;;;5049795;28;20039;-68
2021/10/10 03:41:59;;;;;;;11.95;6.93;;;;;;;;;;5031054;28;20410;-67
2021/10/10 03:44:25;;;;;;;9.68;6.38;;;;;;;;;;5039914;28;20025;-67
2021/10/10 03:46:50;;;;;;;12.52;6.35;;;;;;;;;;5046045;28;20025;-68
2021/10/10 03:49:17;;;;;;;9.63;6.93;;;;;;;;;;5049072;28;20146;-67
2021/10/10 03:51:42;;;;;;;10.02;6.30;;;;;;;;;;5047088;28;20032;-67
2021/10/10 03:56:49;;;;;;;9.65;6.32;;;;;;;;;;5060967;28;20385;-67
2021/10/10 03:59:16;;;;;;;10.30;6.53;;;;;;;;;;5047758;28;20049;-67
2021/10/10 04:01:42;;;;;;;13.63;6.25;;;;;;;;;;5038920;28;20033;-67
2021/10/10 04:04:08;;;;;;;12.63;6.68;;;;;;;;;;5050706;28;20021;-67
2021/10/10 04:06:33;;;;;;;9.32;6.43;;;;;;;;;;5050588;28;20040;-67
2021/10/10 04:08:59;;;;;;;9.35;5.90;;;;;;;;;;5050553;28;20388;-67
2021/10/10 04:11:24;;;;;;;12.30;5.90;;;;;;;;;;5035422;28;20036;-67
2021/10/10 04:13:50;;;;;;;10.27;6.10;;;;;;;;;;5030905;28;20030;-67
2021/10/10 04:16:16;;;;;;;12.07;5.93;;;;;;;;;;5034832;28;20434;-67
2021/10/10 04:18:41;;;;;;;44.88;26.45;;;;;;;;;;5045190;28;20043;-67
2021/10/10 04:21:07;;;;;;;536.65;382.45;;;;;;;;;;5037145;28;20393;-67
2021/10/10 04:23:33;;;;;;;562.65;333.27;;;;;;;;;;5030574;28;20075;-67
2021/10/10 04:25:58;;;;;;;265.83;173.80;;;;;;;;;;5038886;28;20035;-67
2021/10/10 04:28:24;;;;;;;38.08;31.15;;;;;;;;;;5045699;28;20087;-67
2021/10/10 04:30:49;;;;;;;22.80;20.35;;;;;;;;;;5030780;28;20117;-67
2021/10/10 04:33:15;;;;;;;13.10;9.07;;;;;;;;;;5030298;28;20025;-67
2021/10/10 04:35:41;;;;;;;18.73;14.95;;;;;;;;;;5043222;28;20021;-67
2021/10/10 04:38:06;;;;;;;22.05;15.20;;;;;;;;;;5042650;28;20389;-67
2021/10/10 04:40:32;;;;;;;31.27;23.98;;;;;;;;;;5040814;28;20021;-67
2021/10/10 04:42:57;;;;;;;22.10;18.25;;;;;;;;;;5053493;28;20032;-67
2021/10/10 04:45:23;;;;;;;48.75;43.75;;;;;;;;;;5043654;28;20048;-67
2021/10/10 04:47:48;;;;;;;30.85;27.55;;;;;;;;;;5033953;28;20033;-67
2021/10/10 04:50:14;;;;;;;26.98;19.95;;;;;;;;;;5038093;28;20082;-67
2021/10/10 04:52:39;;;;;;;24.92;21.38;;;;;;;;;;5053423;28;20021;-68
2021/10/10 04:55:05;;;;;;;66.75;59.65;;;;;;;;;;5046467;28;20033;-67
2021/10/10 04:57:31;;;;;;;30.65;27.20;;;;;;;;;;5056303;28;20021;-67
2021/10/10 04:59:57;;;;;;;30.90;23.63;;;;;;;;;;5041408;28;20045;-67
2021/10/10 05:02:23;;;;;;;25.23;21.50;;;;;;;;;;5044488;28;20033;-67
2021/10/10 05:04:50;;;;;;;44.35;39.20;;;;;;;;;;5046313;28;20037;-67
2021/10/10 05:07:17;;;;;;;27.63;23.60;;;;;;;;;;5044834;28;20022;-67
2021/10/10 05:09:43;;;;;;;14.70;10.70;;;;;;;;;;5049836;28;20468;-67
2021/10/10 05:12:08;;;;;;;16.33;13.48;;;;;;;;;;5048951;28;20029;-67
2021/10/10 05:14:34;;;;;;;10.45;8.13;;;;;;;;;;5046569;28;20052;-67
2021/10/10 05:16:59;;;;;;;12.32;9.93;;;;;;;;;;5053395;28;20105;-67
2021/10/10 05:19:25;;;;;;;10.43;7.35;;;;;;;;;;5053471;28;20021;-67
2021/10/10 05:21:51;;;;;;;8.88;6.68;;;;;;;;;;5043390;28;20033;-67
2021/10/10 05:24:17;;;;;;;13.30;6.93;;;;;;;;;;5045271;28;20029;-67
2021/10/10 05:26:42;;;;;;;11.85;7.20;;;;;;;;;;5043025;28;20029;-67
2021/10/10 05:29:08;;;;;;;9.38;6.97;;;;;;;;;;5053073;28;20028;-68
2021/10/10 05:31:33;;;;;;;12.63;6.38;;;;;;;;;;5053341;28;20032;-67
2021/10/10 05:34:00;;;;;;;11.60;6.82;;;;;;;;;;5058656;28;20078;-67
2021/10/10 05:36:27;;;;;;;10.60;6.65;;;;;;;;;;5052871;28;20032;-67
2021/10/10 05:38:52;;;;;;;15.82;9.50;;;;;;;;;;5047735;28;20017;-67
2021/10/10 05:41:18;;;;;;;12.13;8.52;;;;;;;;;;5053097;28;20044;-67
2021/10/10 05:43:44;;;;;;;10.57;6.78;;;;;;;;;;5052348;28;20037;-67
2021/10/10 05:46:09;;;;;;;14.52;9.63;;;;;;;;;;5048876;28;20109;-67
2021/10/10 05:48:35;;;;;;;10.93;7.15;;;;;;;;;;5033112;28;20025;-67
2021/10/10 05:51:00;;;;;;;8.85;6.68;;;;;;;;;;5032472;28;20465;-67
2021/10/10 05:53:26;;;;;;;11.60;7.30;;;;;;;;;;5032405;28;20048;-67
2021/10/10 05:55:58;;;;;;;9.43;6.63;;;;;;;;;;5054521;28;20487;-67
2021/10/10 05:58:27;;;;;;;11.05;7.72;;;;;;;;;;5047930;28;20037;-67
2021/10/10 06:00:53;;;;;;;9.18;6.03;;;;;;;;;;5037051;28;20416;-67
2021/10/10 06:03:18;;;;;;;10.15;6.53;;;;;;;;;;5051999;28;20031;-67
2021/10/10 06:05:44;;;;;;;11.50;8.70;;;;;;;;;;5052526;28;20111;-68
2021/10/10 06:08:12;;;;;;;13.00;9.43;;;;;;;;;;5052736;28;20453;-67
2021/10/10 06:10:37;;;;;;;8.70;6.68;;;;;;;;;;5059558;28;20450;-67
2021/10/10 06:13:03;;;;;;;12.93;6.30;;;;;;;;;;5052059;28;20099;-67
2021/10/10 06:15:29;;;;;;;10.32;6.10;;;;;;;;;;5046386;28;20028;-67
2021/10/10 06:17:55;;;;;;;7.72;4.97;;;;;;;;;;5032571;28;20025;-67
2021/10/10 06:20:21;;;;;;;6.90;4.90;;;;;;;;;;5045497;28;20541;-67
2021/10/10 06:22:46;;;;;;;8.80;4.95;;;;;;;;;;5050177;28;20378;-67
2021/10/10 06:25:12;;;;;;;7.05;5.60;;;;;;;;;;5051245;28;20020;-67
2021/10/10 06:27:37;;;;;;;8.98;4.97;;;;;;;;;;5053686;28;20082;-67
2021/10/10 06:30:03;;;;;;;8.02;5.43;;;;;;;;;;5051851;28;20434;-67
2021/10/10 06:32:29;;;;;;;10.38;5.75;;;;;;;;;;5051972;28;20035;-67
2021/10/10 06:34:54;;;;;;;9.02;5.28;;;;;;;;;;5066895;28;20484;-67
2021/10/10 06:37:20;;;;;;;8.93;5.15;;;;;;;;;;5051644;28;20473;-67
2021/10/10 06:39:46;;;;;;;6.78;4.20;;;;;;;;;;5046089;28;20029;-67
2021/10/10 06:42:14;;;;;;;7.57;4.20;;;;;;;;;;5047187;28;20029;-67
2021/10/10 06:44:39;;;;;;;8.27;4.40;;;;;;;;;;5048496;28;20029;-67
2021/10/10 06:47:05;;;;;;;7.05;4.80;;;;;;;;;;5050108;28;20158;-67
2021/10/10 06:49:30;;;;;;;7.90;4.32;;;;;;;;;;5050277;28;20078;-67
2021/10/10 06:51:56;;;;;;;7.43;4.18;;;;;;;;;;5050103;28;20506;-68
2021/10/10 06:54:21;;;;;;;8.90;5.03;;;;;;;;;;5049154;28;20302;-67
2021/10/10 06:56:47;;;;;;;6.40;4.60;;;;;;;;;;5064080;28;20021;-67
2021/10/10 06:59:12;;;;;;;7.95;4.25;;;;;;;;;;5070985;28;20098;-67
2021/10/10 07:01:39;;;;;;;17.15;12.20;;;;;;;;;;5059488;28;20392;-67
2021/10/10 07:04:05;;;;;;;8.98;6.43;;;;;;;;;;5050929;28;20037;-67
2021/10/10 07:06:31;;;;;;;11.50;6.47;;;;;;;;;;5051452;28;20082;-67
2021/10/10 07:08:57;;;;;;;10.98;9.10;;;;;;;;;;5051365;28;20029;-67
2021/10/10 07:11:22;;;;;;;6.00;3.60;;;;;;;;;;5051284;28;20025;-67
2021/10/10 07:13:48;;;;;;;8.02;5.45;;;;;;;;;;5051074;28;20024;-67
2021/10/10 07:16:14;;;;;;;14.13;6.00;;;;;;;;;;5051377;28;20033;-67
2021/10/10 07:18:50;;;;;;;9.88;5.47;;;;;;;;;;5050534;28;20025;-67
2021/10/10 07:26:24;;;;;;;9.60;5.15;;;;;;;;;;5058165;28;20450;-67
2021/10/10 07:28:51;;;;;;;7.15;4.30;;;;;;;;;;5051610;28;20071;-67
2021/10/10 07:31:16;;;;;;;8.43;5.25;;;;;;;;;;5050754;28;20027;-67
2021/10/10 07:33:43;;;;;;;11.35;6.05;;;;;;;;;;5050259;28;20443;-67
2021/10/10 07:36:09;;;;;;;7.70;5.68;;;;;;;;;;5050361;28;20025;-67
2021/10/10 07:38:35;;;;;;;42.03;20.63;;;;;;;;;;5050872;28;20033;-67
2021/10/10 07:41:04;;;;;;;153.98;58.42;;;;;;;;;;5051327;28;20079;-67
2021/10/10 07:43:31;;;;;;;98.18;38.40;;;;;;;;;;5050736;28;20028;-67
2021/10/10 07:46:06;;;;;;;257.70;102.53;;;;;;;;;;5050098;28;20100;-67
2021/10/10 07:48:33;;;;;;;106.15;40.63;;;;;;;;;;5049563;28;20017;-67
2021/10/10 07:50:58;;;;;;;202.80;82.72;;;;;;;;;;5050616;28;20121;-67
2021/10/10 07:53:24;;;;;;;50.75;25.23;;;;;;;;;;5050591;28;20024;-67
2021/10/10 07:55:49;;;;;;;230.75;92.38;;;;;;;;;;5056805;28;20035;-68
2021/10/10 07:58:15;;;;;;;214.48;92.13;;;;;;;;;;5070510;28;20081;-67
2021/10/10 08:00:40;;;;;;;244.38;158.40;;;;;;;;;;5070696;28;20020;-67
2021/10/10 08:03:05;;;;;;;18.77;14.48;;;;;;;;;;5071055;28;20024;-67
2021/10/10 08:05:38;;;;;;;11.50;5.00;;;;;;;;;;5070783;28;20380;-67
2021/10/10 08:08:04;;;;;;;89.27;67.00;;;;;;;;;;5070559;28;20024;-68
2021/10/10 08:10:30;;;;;;;66.35;44.33;;;;;;;;;;5070591;28;20637;-67
2021/10/10 08:12:55;;;;;;;101.53;54.80;;;;;;;;;;5070394;28;20031;-67
2021/10/10 08:15:20;;;;;;;72.70;39.20;;;;;;;;;;5072332;28;20075;-67
2021/10/10 08:17:46;;;;;;;68.22;45.50;;;;;;;;;;5074463;28;20552;-67
2021/10/10 08:20:11;;;;;;;48.95;36.22;;;;;;;;;;5067867;28;20024;-67
2021/10/10 08:22:45;;;;;;;44.72;35.35;;;;;;;;;;5054386;28;20071;-67
2021/10/10 08:25:17;;;;;;;15.18;13.40;;;;;;;;;;5054158;28;20025;-67
2021/10/10 08:27:54;;;;;;;11.88;10.55;;;;;;;;;;5054494;28;20032;-67
2021/10/10 08:30:20;;;;;;;17.73;15.88;;;;;;;;;;5054300;28;20028;-67
2021/10/10 08:32:46;;;;;;;11.98;8.63;;;;;;;;;;5054311;28;20408;-67
2021/10/10 08:35:12;;;;;;;15.88;11.70;;;;;;;;;;5074035;28;20025;-67
2021/10/10 08:37:38;;;;;;;49.10;36.05;;;;;;;;;;5059566;28;20107;-68
2021/10/10 08:40:04;;;;;;;25.80;18.50;;;;;;;;;;5054340;28;20159;-66
2021/10/10 08:42:36;;;;;;;16.95;10.88;;;;;;;;;;5054173;28;20033;-68
2021/10/10 08:47:44;;;;;;;9.18;7.38;;;;;;;;;;5052705;28;20029;-67
2021/10/10 08:50:20;;;;;;;40.67;30.65;;;;;;;;;;5052622;28;20256;-68
2021/10/10 08:52:47;;;;;;;47.80;41.13;;;;;;;;;;5052401;28;20148;-67
2021/10/10 08:55:14;;;;;;;18.02;16.20;;;;;;;;;;5053337;28;20044;-68
2021/10/10 08:57:40;;;;;;;19.65;17.63;;;;;;;;;;5072125;28;20016;-68
2021/10/10 09:00:16;;;;;;;32.13;27.23;;;;;;;;;;5073344;28;20066;-68
2021/10/10 09:02:46;;;;;;;26.67;20.73;;;;;;;;;;5073741;28;20494;-67
2021/10/10 09:05:12;;;;;;;19.60;16.05;;;;;;;;;;5073880;28;20017;-67
2021/10/10 09:07:38;;;;;;;8.90;7.10;;;;;;;;;;5073973;28;20224;-67
2021/10/10 09:10:25;;;;;;;10.93;8.70;;;;;;;;;;5073666;28;20123;-68
2021/10/10 09:12:52;;;;;;;10.73;7.60;;;;;;;;;;5073443;28;20093;-67
2021/10/10 09:15:21;;;;;;;9.13;5.75;;;;;;;;;;5073352;28;20024;-67
2021/10/10 09:17:58;;;;;;;10.32;6.70;;;;;;;;;;5073266;28;20077;-67
2021/10/10 09:20:39;;;;;;;10.32;7.93;;;;;;;;;;5073411;28;20037;-67
2021/10/10 09:23:07;;;;;;;11.77;5.40;;;;;;;;;;5073186;28;20032;-67
2021/10/10 09:25:34;;;;;;;10.10;8.02;;;;;;;;;;5073013;28;20031;-67
2021/10/10 09:28:17;;;;;;;9.60;5.90;;;;;;;;;;5073040;28;20063;-67
2021/10/10 09:31:03;;;;;;;10.10;6.47;;;;;;;;;;5073337;28;20221;-67
2021/10/10 09:33:47;;;;;;;6.80;4.50;;;;;;;;;;5067149;28;20032;-68
2021/10/10 09:36:30;;;;;;;10.05;5.97;;;;;;;;;;5052959;28;20481;-67
2021/10/10 09:46:49;;;;;;;9.73;6.38;;;;;;;;;;5053205;28;20033;-67
2021/10/10 09:49:26;;;;;;;8.60;5.28;;;;;;;;;;5052674;28;20448;-67
2021/10/10 09:51:53;;;;;;;8.50;5.70;;;;;;;;;;5051636;28;20017;-67
2021/10/10 09:54:19;;;;;;;9.73;5.57;;;;;;;;;;5052806;28;20097;-67
2021/10/10 09:57:05;;;;;;;8.98;5.38;;;;;;;;;;5066563;28;20115;-67
2021/10/10 09:59:31;;;;;;;8.70;5.13;;;;;;;;;;5072293;28;20080;-67
2021/10/10 10:01:56;;;;;;;8.25;4.65;;;;;;;;;;5071219;28;20064;-67
2021/10/10 10:04:22;;;;;;;7.40;4.20;;;;;;;;;;5072550;28;20025;-67
2021/10/10 10:06:47;;;;;;;7.32;4.38;;;;;;;;;;5072569;28;20067;-67
2021/10/10 10:09:13;;;;;;;7.03;4.65;;;;;;;;;;5072200;28;20479;-67
2021/10/10 10:11:41;;;;;;;7.10;4.20;;;;;;;;;;5066218;28;20029;-67
2021/10/10 10:14:11;;;;;;;8.32;4.60;;;;;;;;;;5053056;28;20112;-67
2021/10/10 10:16:42;;;;;;;6.28;3.45;;;;;;;;;;5053234;28;20036;-67
2021/10/10 10:19:17;;;;;;;5.85;3.90;;;;;;;;;;5053127;28;20033;-68
2021/10/10 10:21:54;;;;;;;7.65;4.03;;;;;;;;;;5052245;28;20507;-67
2021/10/10 10:24:21;;;;;;;6.13;3.70;;;;;;;;;;5052957;28;20029;-67
2021/10/10 10:26:46;;;;;;;8.88;4.40;;;;;;;;;;5053097;28;20025;-67
2021/10/10 10:29:15;;;;;;;7.38;4.47;;;;;;;;;;5052509;28;20462;-67
2021/10/10 10:31:44;;;;;;;7.15;4.28;;;;;;;;;;5053156;28;20033;-67
2021/10/10 10:34:20;;;;;;;7.05;4.20;;;;;;;;;;5064386;28;20012;-67
2021/10/10 10:37:02;;;;;;;6.13;4.25;;;;;;;;;;5071685;28;20032;-67
2021/10/10 10:39:37;;;;;;;6.22;4.55;;;;;;;;;;5061822;28;20438;-67
2021/10/10 10:42:33;;;;;;;8.32;3.88;;;;;;;;;;5051512;28;20017;-69
2021/10/10 10:44:59;;;;;;;6.90;3.75;;;;;;;;;;5046498;28;20136;-67
2021/10/10 10:47:37;;;;;;;5.93;4.20;;;;;;;;;;5051567;28;20154;-67
2021/10/10 10:50:08;;;;;;;6.40;4.20;;;;;;;;;;5052206;28;20115;-67
2021/10/10 10:52:43;;;;;;;6.53;3.90;;;;;;;;;;5052769;28;20025;-67
2021/10/10 10:55:24;;;;;;;7.45;4.35;;;;;;;;;;5055315;28;20093;-67
2021/10/10 10:57:59;;;;;;;8.77;5.10;;;;;;;;;;5052197;28;20029;-67
2021/10/10 11:00:48;;;;;;;10.23;5.45;;;;;;;;;;5054747;28;20600;-67
2021/10/10 11:03:25;;;;;;;5.80;3.90;;;;;;;;;;5059694;28;20068;-67
2021/10/10 11:06:06;;;;;;;6.60;4.57;;;;;;;;;;5052245;28;20104;-67
2021/10/10 11:08:33;;;;;;;8.93;4.68;;;;;;;;;;5052533;28;20024;-68
2021/10/10 11:11:04;;;;;;;8.90;4.32;;;;;;;;;;5052222;28;20515;-67
2021/10/10 11:13:45;;;;;;;6.80;4.30;;;;;;;;;;5052127;28;20021;-67
2021/10/10 11:16:17;;;;;;;6.32;4.30;;;;;;;;;;5051649;28;20029;-67
2021/10/10 11:18:50;;;;;;;6.23;4.13;;;;;;;;;;5052238;28;20020;-67
2021/10/10 11:21:19;;;;;;;6.88;5.43;;;;;;;;;;5051748;28;20584;-67
2021/10/10 11:23:49;;;;;;;8.25;5.50;;;;;;;;;;5051479;28;20033;-67
2021/10/10 11:26:15;;;;;;;8.55;4.50;;;;;;;;;;5051796;28;20025;-67
2021/10/10 11:28:51;;;;;;;8.07;5.40;;;;;;;;;;5052154;28;20028;-67
2021/10/10 11:31:17;;;;;;;6.65;4.43;;;;;;;;;;5049381;28;20025;-68
2021/10/10 11:33:47;;;;;;;9.60;4.70;;;;;;;;;;5059825;28;20031;-68
2021/10/10 11:36:14;;;;;;;6.45;4.35;;;;;;;;;;5071916;28;20021;-67
2021/10/10 11:38:50;;;;;;;5.80;4.22;;;;;;;;;;5071944;28;20024;-67
2021/10/10 11:41:16;;;;;;;6.35;4.22;;;;;;;;;;5071722;28;20644;-67
2021/10/10 11:43:54;;;;;;;8.68;4.88;;;;;;;;;;5033431;28;20394;-67
2021/10/10 11:46:20;;;;;;;7.88;4.75;;;;;;;;;;5031745;28;20026;-67
2021/10/10 11:48:51;;;;;;;7.47;4.25;;;;;;;;;;5031962;28;20048;-67
2021/10/10 11:51:35;;;;;;;8.40;5.07;;;;;;;;;;5046650;28;20116;-67
2021/10/10 11:54:02;;;;;;;10.93;4.78;;;;;;;;;;5047017;28;20716;-67
2021/10/10 11:56:28;;;;;;;7.53;4.93;;;;;;;;;;5032016;28;20078;-68
2021/10/10 11:58:54;;;;;;;6.90;3.97;;;;;;;;;;5031719;28;20520;-67
2021/10/10 12:01:19;;;;;;;11.20;5.47;;;;;;;;;;5031282;28;20022;-68
2021/10/10 12:03:48;;;;;;;8.23;4.30;;;;;;;;;;5030498;28;20033;-67
2021/10/10 12:06:20;;;;;;;10.82;4.70;;;;;;;;;;5010787;28;20075;-67
2021/10/10 12:08:49;;;;;;;8.60;5.10;;;;;;;;;;5011857;28;20021;-68
2021/10/10 12:11:14;;;;;;;8.57;4.82;;;;;;;;;;5011885;28;20037;-67
2021/10/10 12:13:56;;;;;;;8.13;5.28;;;;;;;;;;5031169;28;20025;-68
2021/10/10 12:16:22;;;;;;;7.63;5.22;;;;;;;;;;5029971;28;20108;-67
2021/10/10 12:18:47;;;;;;;7.63;5.10;;;;;;;;;;5028545;28;20103;-67
2021/10/10 12:21:30;;;;;;;9.60;5.57;;;;;;;;;;5050372;28;20155;-67
2021/10/10 12:24:14;;;;;;;8.43;5.55;;;;;;;;;;5032846;28;20030;-68
2021/10/10 12:26:56;;;;;;;10.35;5.90;;;;;;;;;;5030720;28;20386;-68
2021/10/10 12:29:30;;;;;;;9.90;6.68;;;;;;;;;;5029519;28;20048;-67
2021/10/10 12:32:26;;;;;;;10.52;6.38;;;;;;;;;;5030531;28;20388;-67
2021/10/10 12:35:15;;;;;;;11.95;6.60;;;;;;;;;;5045315;28;20025;-67
2021/10/10 12:37:49;;;;;;;11.23;6.10;;;;;;;;;;5050424;28;20036;-68
2021/10/10 12:40:34;;;;;;;8.20;5.60;;;;;;;;;;5044194;28;20033;-68
2021/10/10 12:43:00;;;;;;;11.32;7.35;;;;;;;;;;5030268;28;20026;-67
2021/10/10 12:45:28;;;;;;;11.40;6.03;;;;;;;;;;5030469;28;20079;-67
2021/10/10 12:47:57;;;;;;;10.15;7.30;;;;;;;;;;5030511;28;20017;-67
2021/10/10 12:50:23;;;;;;;9.88;6.13;;;;;;;;;;5030108;28;20029;-67
2021/10/10 12:52:48;;;;;;;11.27;6.80;;;;;;;;;;5030494;28;20025;-67
2021/10/10 12:55:24;;;;;;;13.55;7.03;;;;;;;;;;5031601;28;20075;-68
2021/10/10 12:57:51;;;;;;;10.32;7.85;;;;;;;;;;5048952;28;20074;-68
2021/10/10 13:00:17;;;;;;;9.57;7.15;;;;;;;;;;5043894;28;20115;-68
2021/10/10 13:02:43;;;;;;;11.00;7.28;;;;;;;;;;5014110;28;20064;-67
2021/10/10 13:05:09;;;;;;;11.45;7.75;;;;;;;;;;5014261;28;20373;-68
2021/10/10 13:07:35;;;;;;;9.02;7.05;;;;;;;;;;5032982;28;20034;-68
2021/10/10 13:10:00;;;;;;;9.45;6.70;;;;;;;;;;5032967;28;20156;-68
2021/10/10 13:12:25;;;;;;;11.63;6.80;;;;;;;;;;5033481;28;20493;-67
2021/10/10 13:14:51;;;;;;;10.15;6.10;;;;;;;;;;5045097;28;20075;-68
2021/10/10 13:17:17;;;;;;;9.85;6.50;;;;;;;;;;5040201;28;20071;-67
2021/10/10 13:19:42;;;;;;;12.73;6.70;;;;;;;;;;5053884;28;20025;-67
2021/10/10 13:22:08;;;;;;;10.63;5.95;;;;;;;;;;5036270;28;20528;-68
2021/10/10 13:24:33;;;;;;;11.52;6.35;;;;;;;;;;5044830;28;20025;-67
2021/10/10 13:26:59;;;;;;;10.25;6.85;;;;;;;;;;5053709;28;20055;-67
2021/10/10 13:29:25;;;;;;;8.45;6.22;;;;;;;;;;5034979;28;20091;-68
2021/10/10 13:31:51;;;;;;;11.85;6.40;;;;;;;;;;5033335;28;20029;-68
2021/10/10 13:34:19;;;;;;;14.25;6.88;;;;;;;;;;5030738;28;20424;-67
2021/10/10 13:36:48;;;;;;;10.38;6.47;;;;;;;;;;5031100;28;20483;-68
2021/10/10 13:39:14;;;;;;;8.10;5.93;;;;;;;;;;5033969;28;20041;-67
2021/10/10 13:41:39;;;;;;;10.48;6.93;;;;;;;;;;5034187;28;20032;-67
2021/10/10 13:44:05;;;;;;;12.18;7.45;;;;;;;;;;5032514;28;20040;-68
2021/10/10 13:46:36;;;;;;;10.63;7.22;;;;;;;;;;5032425;28;20029;-70
2021/10/10 13:49:02;;;;;;;9.18;6.93;;;;;;;;;;5034307;28;20105;-67
2021/10/10 13:51:27;;;;;;;11.55;7.13;;;;;;;;;;5046382;28;20472;-68
2021/10/10 13:53:53;;;;;;;9.00;6.82;;;;;;;;;;5025368;28;20030;-67
2021/10/10 13:56:18;;;;;;;11.40;6.95;;;;;;;;;;5035928;28;20035;-68
2021/10/10 13:58:44;;;;;;;13.55;7.70;;;;;;;;;;5051534;28;20083;-68
2021/10/10 14:01:10;;;;;;;10.40;7.60;;;;;;;;;;5034023;28;20060;-67
2021/10/10 14:03:39;;;;;;;11.00;7.20;;;;;;;;;;5025572;28;20536;-67
2021/10/10 14:06:04;;;;;;;11.73;6.97;;;;;;;;;;5029155;28;20033;-68
2021/10/10 14:08:30;;;;;;;12.38;7.70;;;;;;;;;;5028447;28;20017;-67
2021/10/10 14:10:55;;;;;;;12.90;7.68;;;;;;;;;;5032469;28;20106;-67
2021/10/10 14:13:21;;;;;;;9.43;7.40;;;;;;;;;;5030526;28;20480;-67
2021/10/10 14:15:49;;;;;;;10.13;8.13;;;;;;;;;;5031593;28;20112;-68
2021/10/10 14:18:15;;;;;;;12.02;8.00;;;;;;;;;;5030762;28;20021;-67
2021/10/10 14:20:42;;;;;;;11.02;7.68;;;;;;;;;;5035978;28;20029;-67
2021/10/10 14:23:09;;;;;;;14.40;7.90;;;;;;;;;;5032364;28;20040;-67
2021/10/10 14:25:35;;;;;;;9.93;7.80;;;;;;;;;;5020799;28;20041;-67
2021/10/10 14:28:01;;;;;;;13.07;7.97;;;;;;;;;;5031216;28;20104;-67
2021/10/10 14:30:27;;;;;;;12.80;7.97;;;;;;;;;;5013391;28;20040;-68
2021/10/10 14:32:54;;;;;;;12.55;8.05;;;;;;;;;;5028442;28;20465;-68
2021/10/10 14:35:20;;;;;;;13.55;8.93;;;;;;;;;;5030653;28;20543;-68
2021/10/10 14:37:46;;;;;;;12.93;8.40;;;;;;;;;;5019328;28;20033;-68
2021/10/10 14:40:12;;;;;;;11.70;7.97;;;;;;;;;;5029778;28;20075;-68
2021/10/10 14:50:06;;;;;;;14.25;9.23;;;;;;;;;;5025973;28;20069;-68
2021/10/10 14:52:31;;;;;;;11.85;9.25;;;;;;;;;;5031676;28;20025;-68
2021/10/10 14:54:57;;;;;;;13.07;8.95;;;;;;;;;;5032202;28;20029;-68
2021/10/10 14:57:24;;;;;;;14.20;9.57;;;;;;;;;;5027746;28;20686;-68
2021/10/10 14:59:50;;;;;;;12.45;9.05;;;;;;;;;;5027387;28;20145;-68